This is the latest recevied weather packets stored in our database for station/object EFOU. If no packets are shown the sender has not sent any weather packets the latest 10 day(s).
| Time | Temp. | Humidity | Pressure | Rain* | Wind** | Luminosity | Snow |
|---|---|---|---|---|---|---|---|
| 1777895229 | 9.44° C | 39% | 1000.6 hPa | - | - | - | - |
| 1777894029 | 10° C | 34% | 1000.9 hPa | - | - | - | - |
| 1777892829 | 9.44° C | 35% | 1001.3 hPa | - | - | - | - |
| 1777891628 | 8.89° C | 38% | 1001.6 hPa | - | - | - | - |
| 1777890428 | 10.56° C | 31% | 1001.9 hPa | - | - | - | - |
| 1777889228 | 10° C | 32% | 1002.2 hPa | - | - | - | - |
| 1777888028 | 10° C | 31% | 1002.5 hPa | - | - | - | - |
| 1777886828 | 10.56° C | 31% | 1002.8 hPa | - | - | - | - |
| 1777885629 | 10° C | 32% | 1003.1 hPa | - | - | - | - |
| 1777884428 | 10.56° C | 32% | 1003.2 hPa | - | - | - | - |
| 1777883229 | 10° C | 33% | 1003.4 hPa | - | - | - | - |
| 1777882028 | 10° C | 36% | 1003.5 hPa | - | - | - | - |
| 1777880828 | 9.44° C | 37% | 1003.7 hPa | - | - | - | - |
| 1777879628 | 8.89° C | 39% | 1003.8 hPa | - | - | - | - |
| 1777878428 | 8.33° C | 42% | 1004 hPa | - | - | - | - |
| 1777877228 | 7.78° C | 43% | 1004.2 hPa | - | - | - | - |
| 1777876028 | 7.22° C | 46% | 1004.3 hPa | - | - | - | - |
| 1777874828 | 6.67° C | 48% | 1004.6 hPa | - | - | - | - |
| 1777873628 | 5.56° C | 54% | 1004.9 hPa | - | - | - | - |
| 1777872428 | 4.44° C | 60% | 1005.2 hPa | - | - | - | - |
| 1777871227 | 2.78° C | 65% | 1005.5 hPa | - | - | - | - |
| 1777870028 | 2.22° C | 67% | 1005.8 hPa | - | - | - | - |
| 1777868828 | 1.67° C | 70% | 1005.9 hPa | - | - | - | - |
| 1777867627 | 0.56° C | 74% | 1006 hPa | - | - | - | - |
| 1777866427 | 0° C | 76% | 1005.9 hPa | - | - | - | - |
* Rain since midnight (hover to see other rain measurements)
** Current wind speed in m/s (hover to see current wind gust speed)